Latest Weather Observations for Jacup

IDW60801

Issued at 5:32 am WST Sunday 21 December 2014 (issued every 30 minutes, with the page automatically refreshed every 10 minutes)

About weather observations | Map of weather stations | Latest weather observations for WA | Other Formats
Station Details ID: 010905 Name: JACUP Lat: -33.89 Lon: 119.11 Height: 305.0 m
Data from the previous 72 hours. | See also: Recent months at Jacup
Date/Time
WST
Temp
°C
App
Temp
°C
Dew
Point
Rel
Hum
%
Delta-T
°C
Wind Press
QNH
hPa
Press
MSL
hPa
Rain
since 9 am
mm
Dir
 
Spd
km/h
Gust
km/h
Spd
kts
Gust
kts
21/05:30am 13.5 13.1 13.0 97 0.3 SSE 7 17 4 9 1017.2 1016.3 14.4
21/05:00am 13.4 11.8 12.9 97 0.3 WSW 13 20 7 11 1016.6 1015.7 14.2
21/04:30am 13.5 10.8 12.9 96 0.3 S 19 33 10 18 1016.3 1015.4 13.6
21/04:00am 13.7 10.5 13.1 96 0.3 S 22 35 12 19 1016.2 1015.3 12.0
21/03:30am 13.7 10.1 12.9 95 0.4 SSE 24 39 13 21 1016.1 1015.2 11.4
21/03:00am 14.0 11.3 13.5 97 0.3 SSE 20 32 11 17 1015.6 1014.7 11.4
21/02:30am 14.0 11.3 13.4 96 0.3 S 20 32 11 17 1015.5 1014.6 11.2
21/02:00am 14.0 10.1 13.4 96 0.3 S 26 37 14 20 1015.5 1014.6 11.0
21/01:30am 14.1 11.0 13.5 96 0.3 S 22 39 12 21 1015.6 1014.7 10.0
21/01:00am 14.2 11.5 13.6 96 0.3 S 20 30 11 16 1015.6 1014.7 9.6
21/12:30am 14.3 11.7 13.8 97 0.3 S 20 35 11 19 1015.5 1014.6 9.4
21/12:00am 14.2 10.8 13.7 97 0.3 S 24 37 13 20 1015.4 1014.5 9.4
 
Date/Time
WST
Temp
°C
App
Temp
°C
Dew
Point
Rel
Hum
%
Delta-T
°C
Wind Press
QNH
hPa
Press
MSL
hPa
Rain
since 9 am
mm
Dir
 
Spd
km/h
Gust
km/h
Spd
kts
Gust
kts
20/11:30pm 14.1 11.1 13.6 97 0.3 S 22 41 12 22 1015.3 1014.4 9.4
20/11:00pm 13.7 9.4 13.2 97 0.3 S 28 44 15 24 1015.1 1014.2 9.0
20/10:30pm 15.0 11.1 14.5 97 0.3 S 28 41 15 22 1015.1 1014.2 8.8
20/10:00pm 15.0 11.5 14.5 97 0.3 S 26 41 14 22 1014.9 1014.0 8.2
20/09:30pm 15.1 11.6 14.6 97 0.3 S 26 39 14 21 1014.6 1013.6 7.6
20/09:00pm 15.7 13.6 15.2 97 0.3 S 20 39 11 21 1014.4 1013.4 7.0
20/08:30pm 15.7 12.8 15.2 97 0.3 S 24 35 13 19 1014.1 1013.1 6.2
20/08:00pm 15.8 13.0 15.3 97 0.3 S 24 35 13 19 1013.7 1012.8 6.0
20/07:30pm 16.0 13.2 15.4 96 0.4 S 24 33 13 18 1013.5 1012.6 5.6
20/07:00pm 16.0 13.5 15.2 95 0.5 S 22 35 12 19 1013.2 1012.3 5.6
20/06:30pm 16.1 13.3 15.3 95 0.5 S 24 33 13 18 1012.8 1011.9 5.4
20/06:00pm 16.1 13.2 15.1 94 0.6 S 24 39 13 21 1012.3 1011.4 5.4
20/05:30pm 16.9 13.4 15.4 91 0.9 S 28 43 15 23 1011.8 1010.8 5.4
20/05:00pm 16.8 14.2 15.8 94 0.6 S 24 35 13 19 1011.5 1010.5 5.4
20/04:30pm 17.5 14.3 15.3 87 1.3 S 26 39 14 21 1011.0 1010.0 5.4
20/04:00pm 17.5 13.9 15.3 87 1.3 S 28 44 15 24 1010.9 1009.9 5.4
20/03:30pm 18.4 14.5 15.6 84 1.7 S 30 44 16 24 1010.3 1009.4 5.4
20/03:00pm 19.4 15.7 15.9 80 2.1 S 30 41 16 22 1009.8 1008.9 5.4
20/02:30pm 18.7 15.3 15.8 83 1.7 S 28 44 15 24 1009.5 1008.6 5.4
20/02:20pm 18.8 15.4 15.9 83 1.7 S 28 46 15 25 1009.4 1008.5 5.4
20/02:00pm 18.2 15.0 16.2 88 1.2 S 28 44 15 24 1009.5 1008.6 5.4
20/01:30pm 17.7 14.7 16.7 94 0.6 SSE 28 35 15 19 1009.4 1008.5 5.4
20/01:00pm 18.0 14.6 16.7 92 0.8 S 30 46 16 25 1008.9 1007.9 5.4
20/12:57pm 18.3 15.2 16.6 90 1.0 S 28 46 15 25 1008.9 1007.9 5.4
20/12:30pm 18.8 15.9 17.1 90 1.0 S 28 44 15 24 1008.4 1007.4 5.4
20/12:00pm 18.9 16.6 17.7 93 0.7 S 26 41 14 22 1008.0 1007.0 5.4
20/11:30am 19.5 19.0 17.8 90 1.1 SW 17 30 9 16 1009.5 1008.6 4.8
20/11:00am 21.2 20.3 18.2 83 1.9 NNW 20 32 11 17 1008.2 1007.2 0.6
20/10:30am 25.3 24.0 16.7 59 5.4 N 19 30 10 16 1008.0 1007.0 0.0
20/10:00am 30.0 29.0 14.5 38 9.5 N 13 24 7 13 1007.9 1006.9 0.0
20/09:30am 29.1 28.1 14.5 41 8.9 NNW 13 22 7 12 1008.2 1007.2 0.0
20/09:00am 27.6 25.5 13.5 41 8.5 N 17 26 9 14 1008.6 1007.6 0.0
20/08:30am 27.4 25.1 13.0 41 8.6 N 17 24 9 13 1009.1 1008.2 0.0
20/08:00am 26.3 23.8 12.4 42 8.2 NNE 17 22 9 12 1009.6 1008.7 0.0
20/07:30am 23.6 21.8 13.2 52 6.1 NE 15 20 8 11 1009.8 1008.9 0.0
20/07:00am 20.9 19.7 14.1 65 4.0 NE 13 19 7 10 1010.1 1009.2 0.0
20/06:30am 17.8 17.0 15.1 84 1.6 ENE 13 17 7 9 1010.2 1009.3 0.0
20/06:00am 17.0 16.6 15.3 90 1.0 E 11 15 6 8 1010.2 1009.3 0.0
20/05:30am 16.5 16.6 15.5 94 0.6 E 9 13 5 7 1010.2 1009.3 0.0
20/05:00am 16.1 15.7 15.3 95 0.5 E 11 15 6 8 1010.2 1009.3 0.0
20/04:30am 16.5 15.9 15.7 95 0.5 E 13 17 7 9 1010.4 1009.5 0.0
20/04:00am 16.5 16.0 15.9 96 0.4 ESE 13 17 7 9 1010.8 1009.8 0.0
20/03:30am 16.4 16.2 15.8 96 0.4 SE 11 15 6 8 1010.9 1009.9 0.0
20/03:00am 16.1 15.4 15.3 95 0.5 S 13 17 7 9 1011.1 1010.1 0.0
20/02:30am 15.8 15.2 14.7 93 0.6 SSE 11 15 6 8 1011.2 1010.2 0.0
20/02:00am 15.5 15.1 14.2 92 0.7 SE 9 11 5 6 1011.4 1010.4 0.0
20/01:30am 15.8 15.5 14.5 92 0.8 SSE 9 13 5 7 1012.0 1011.1 0.0
20/01:00am 15.5 15.0 13.7 89 1.0 S 9 15 5 8 1012.3 1011.4 0.0
20/12:30am 16.2 14.2 14.0 87 1.3 E 17 22 9 12 1011.8 1010.8 0.0
20/12:00am 16.6 15.1 14.2 86 1.4 E 15 20 8 11 1012.0 1011.1 0.0
 
Date/Time
WST
Temp
°C
App
Temp
°C
Dew
Point
Rel
Hum
%
Delta-T
°C
Wind Press
QNH
hPa
Press
MSL
hPa
Rain
since 9 am
mm
Dir
 
Spd
km/h
Gust
km/h
Spd
kts
Gust
kts
19/11:30pm 16.6 14.1 14.2 86 1.4 E 20 28 11 15 1012.7 1011.8 0.0
19/11:00pm 16.8 14.5 14.1 84 1.6 E 19 28 10 15 1013.3 1012.4 0.0
19/10:30pm 16.9 14.1 14.4 85 1.5 E 22 30 12 16 1013.3 1012.4 0.0
19/10:00pm 16.7 13.7 14.7 88 1.2 E 24 32 13 17 1013.7 1012.8 0.0
19/09:30pm 17.0 13.9 14.6 86 1.4 E 24 35 13 19 1013.7 1012.8 0.0
19/09:00pm 17.3 13.6 14.0 81 1.9 E 26 37 14 20 1013.4 1012.5 0.0
19/08:30pm 17.7 13.8 13.4 76 2.5 E 26 35 14 19 1013.1 1012.2 0.0
19/08:00pm 18.3 14.5 12.5 69 3.3 ESE 24 41 13 22 1013.2 1012.3 0.0
19/07:30pm 18.8 16.3 13.6 72 3.0 ESE 19 28 10 15 1013.0 1012.1 0.0
19/07:00pm 20.0 17.3 13.5 66 3.8 ESE 20 32 11 17 1012.9 1012.0 0.0
19/06:30pm 21.6 17.5 12.7 57 5.1 SE 26 35 14 19 1012.7 1011.8 0.0
19/06:00pm 23.5 18.4 11.9 48 6.7 ESE 30 37 16 20 1012.4 1011.5 0.0
19/05:30pm 24.9 19.4 10.4 40 8.2 ESE 30 39 16 21 1012.6 1011.7 0.0
19/05:00pm 26.5 21.3 10.2 36 9.2 ESE 28 41 15 22 1012.6 1011.7 0.0
19/04:30pm 27.6 21.5 9.9 33 10.0 ESE 32 41 17 22 1012.6 1011.7 0.0
19/04:00pm 28.3 21.8 9.1 30 10.8 ESE 33 43 18 23 1012.9 1012.0 0.0
19/03:30pm 29.6 22.9 8.1 26 11.9 ESE 33 43 18 23 1013.1 1012.2 0.0
19/03:00pm 30.5 24.4 8.3 25 12.4 ESE 30 46 16 25 1013.5 1012.6 0.0
19/02:30pm 31.6 26.7 9.8 26 12.5 ESE 26 35 14 19 1013.8 1012.9 0.0
19/02:00pm 31.4 25.9 9.0 25 12.7 ESE 28 37 15 20 1014.3 1013.3 0.0
19/01:30pm 32.1 27.9 9.6 25 12.9 ESE 22 37 12 20 1014.7 1013.7 0.0
19/01:00pm 32.6 28.8 6.0 19 14.5 ENE 15 26 8 14 1015.1 1014.2 0.0
19/12:30pm 32.4 28.7 4.2 17 14.9 NE 13 26 7 14 1015.5 1014.6 0.0
19/12:00pm 31.7 27.9 3.7 17 14.6 NE 13 28 7 15 1016.3 1015.4 0.0
19/11:30am 30.9 27.2 4.6 19 13.9 NNE 13 39 7 21 1016.7 1015.8 0.0
19/11:00am 29.7 25.6 6.4 23 12.5 NE 17 26 9 14 1017.1 1016.2 0.0
19/10:30am 29.5 25.4 8.0 26 11.9 NE 19 30 10 16 1017.5 1016.5 0.0
19/10:00am 28.4 23.9 8.7 29 10.9 NE 22 32 12 17 1017.9 1017.0 0.0
19/09:30am 26.8 22.7 8.7 32 10.0 ENE 20 30 11 16 1018.2 1017.3 0.0
19/09:00am 25.4 20.7 9.3 36 8.9 NE 24 33 13 18 1018.5 1017.6 0.0
19/08:30am 24.7 20.2 10.2 40 8.1 NE 24 33 13 18 1018.5 1017.6 0.0
19/08:00am 23.4 19.8 10.5 44 7.2 NE 20 30 11 16 1018.9 1018.0 0.0
19/07:30am 21.1 18.3 11.2 53 5.5 NE 17 24 9 13 1019.1 1018.2 0.0
19/07:00am 18.8 15.6 11.1 61 4.2 NE 19 26 10 14 1018.9 1018.0 0.0
19/06:30am 17.2 14.0 11.2 68 3.3 NE 19 24 10 13 1018.7 1017.8 0.0
19/06:00am 15.3 12.5 11.3 77 2.2 ENE 17 22 9 12 1018.8 1017.9 0.0
19/05:30am 12.1 9.6 9.8 86 1.2 ENE 13 17 7 9 1018.6 1017.7 0.0
19/05:00am 11.8 8.5 9.7 87 1.1 NE 17 22 9 12 1018.3 1017.4 0.0
19/04:30am 10.9 8.3 9.2 89 0.9 NE 13 17 7 9 1018.0 1017.1 0.0
19/04:00am 10.9 8.7 9.2 89 0.9 ENE 11 15 6 8 1017.9 1017.0 0.0
19/03:30am 11.2 9.0 9.3 88 1.0 ENE 11 17 6 9 1017.8 1016.9 0.0
19/03:00am 11.0 8.9 9.6 91 0.7 NE 11 15 6 8 1018.0 1017.1 0.0
19/02:30am 11.4 8.6 10.0 91 0.7 NE 15 20 8 11 1018.0 1017.1 0.0
19/02:00am 11.6 9.3 10.3 92 0.7 NE 13 17 7 9 1018.1 1017.2 0.0
19/01:30am 11.9 9.6 10.6 92 0.7 ENE 13 17 7 9 1018.3 1017.4 0.0
19/01:00am 12.1 9.9 10.8 92 0.7 ENE 13 20 7 11 1018.6 1017.7 0.0
19/12:30am 12.2 10.0 10.8 91 0.7 ENE 13 19 7 10 1018.8 1017.9 0.0
19/12:00am 12.4 9.8 10.8 90 0.8 ENE 15 20 8 11 1019.0 1018.1 0.0
 
Date/Time
WST
Temp
°C
App
Temp
°C
Dew
Point
Rel
Hum
%
Delta-T
°C
Wind Press
QNH
hPa
Press
MSL
hPa
Rain
since 9 am
mm
Dir
 
Spd
km/h
Gust
km/h
Spd
kts
Gust
kts
18/11:30pm 12.4 9.8 10.8 90 0.8 ENE 15 17 8 9 1019.1 1018.2 0.0
18/11:00pm 12.9 10.8 11.3 90 0.9 E 13 15 7 8 1019.1 1018.2 0.0
18/10:30pm 12.7 10.9 10.9 89 1.0 E 11 13 6 7 1019.3 1018.4 0.0
18/10:00pm 13.1 11.0 11.0 87 1.1 E 13 17 7 9 1019.2 1018.3 0.0
18/09:30pm 12.9 11.0 10.4 85 1.3 E 11 15 6 8 1019.2 1018.3 0.0
18/09:00pm 13.6 11.2 10.0 79 1.9 E 13 15 7 8 1019.1 1018.2 0.0
18/08:30pm 14.5 12.1 9.9 74 2.4 ESE 13 19 7 10 1018.8 1017.9 0.0
18/08:00pm 15.2 12.3 9.6 69 2.9 ESE 15 20 8 11 1018.6 1017.7 0.0
18/07:30pm 16.2 13.2 9.4 64 3.6 ESE 15 20 8 11 1018.4 1017.5 0.0
18/07:00pm 17.4 13.2 9.6 60 4.1 ESE 22 30 12 16 1018.1 1017.2 0.0
18/06:30pm 18.9 14.7 9.9 56 4.9 ESE 22 30 12 16 1018.0 1017.1 0.0
18/06:00pm 20.2 15.3 10.0 52 5.6 ESE 26 35 14 19 1017.7 1016.8 0.0
18/05:30pm 21.2 16.3 10.1 49 6.1 ESE 26 35 14 19 1017.3 1016.4 0.0
18/05:00pm 22.3 17.6 10.8 48 6.4 ESE 26 37 14 20 1017.2 1016.3 0.0
18/04:30pm 22.8 18.2 10.9 47 6.7 SE 26 33 14 18 1017.1 1016.2 0.0
18/04:00pm 23.9 19.2 10.6 43 7.5 ESE 26 35 14 19 1017.1 1016.2 0.0
18/03:30pm 24.5 19.3 10.4 41 7.9 SE 28 41 15 22 1017.1 1016.2 0.0
18/03:00pm 26.1 21.2 9.9 36 9.1 ESE 26 37 14 20 1017.1 1016.2 0.0
18/02:30pm 27.5 24.1 9.3 32 10.2 E 17 35 9 19 1017.1 1016.2 0.0
18/02:00pm 26.9 25.2 5.8 26 11.1 - 4 17 2 9 1017.5 1016.5 0.0
18/01:30pm 27.2 24.6 6.0 26 11.2 SE 9 15 5 8 1017.6 1016.7 0.0
18/01:00pm 25.9 22.6 6.5 29 10.2 ESE 13 22 7 12 1017.8 1016.9 0.0
18/12:30pm 25.8 22.7 7.4 31 9.9 ESE 13 20 7 11 1018.0 1017.1 0.0
18/12:00pm 25.1 22.4 7.3 32 9.5 SE 11 20 6 11 1018.4 1017.5 0.0
18/11:30am 23.8 20.6 7.0 34 8.9 ESE 13 20 7 11 1018.7 1017.8 0.0
18/11:00am 22.5 19.7 7.1 37 8.0 ESE 11 19 6 10 1019.0 1018.1 0.0
18/10:30am 21.8 19.3 6.5 37 7.9 ESE 9 17 5 9 1019.2 1018.3 0.0
18/10:00am 20.5 17.8 7.5 43 6.8 E 11 17 6 9 1019.3 1018.4 0.0
18/09:30am 19.8 17.1 7.2 44 6.5 ENE 11 17 6 9 1019.5 1018.6 0.0
18/09:00am 18.5 16.5 8.7 53 5.2 E 9 15 5 8 1019.3 1018.4 0.0
18/08:30am 16.9 14.5 8.6 58 4.3 E 11 17 6 9 1019.4 1018.5 0.0
18/08:00am 17.3 15.1 9.2 59 4.3 NE 11 15 6 8 1019.5 1018.6 0.0
18/07:30am 16.1 13.5 9.3 64 3.6 ENE 13 19 7 10 1019.5 1018.6 0.0
18/07:00am 14.7 13.0 9.7 72 2.6 SE 9 13 5 7 1019.3 1018.4 0.0
18/06:30am 13.9 14.0 10.1 78 2.0 CALM 0 0 0 0 1019.1 1018.2 0.0
18/06:00am 12.1 12.2 10.2 88 1.0 CALM 0 0 0 0 1018.5 1017.6 0.0

Other Formats:

Comma delimited format used in spreadsheet applications
http://www.bom.gov.au/fwo/IDW60801/IDW60801.95636.axf

JavaScript Object Notation format (JSON) in row-major order
http://www.bom.gov.au/fwo/IDW60801/IDW60801.95636.json